createdAt,value
2023-03-21T00:01:27.476Z,4.55
2023-03-21T00:03:29.197Z,4.43
2023-03-21T00:05:31.584Z,4.38
2023-03-21T00:07:33.230Z,4.03
2023-03-21T00:09:35.432Z,3.80
2023-03-21T00:11:37.069Z,4.13
2023-03-21T00:13:42.426Z,4.22
2023-03-21T00:18:11.909Z,10.15
2023-03-21T00:20:14.915Z,8.73
2023-03-21T00:22:16.584Z,8.60
2023-03-21T00:24:18.425Z,6.47
2023-03-21T00:26:20.166Z,6.43
2023-03-21T00:28:22.132Z,5.13
2023-03-21T00:30:24.078Z,4.82
2023-03-21T00:32:25.832Z,5.30
2023-03-21T00:34:37.038Z,3.60
2023-03-21T00:36:50.087Z,3.55
2023-03-21T00:38:52.070Z,2.78
2023-03-21T00:40:58.218Z,3.25
2023-03-21T00:43:01.476Z,3.05
2023-03-21T00:45:04.412Z,3.03
2023-03-21T00:47:08.198Z,2.58
2023-03-21T00:49:09.981Z,2.22
2023-03-21T00:51:15.622Z,3.15
2023-03-21T00:53:17.234Z,2.50
2023-03-21T00:55:19.857Z,2.97
2023-03-21T00:57:29.292Z,3.00
2023-03-21T00:59:40.605Z,2.90
2023-03-21T01:01:42.396Z,2.95
2023-03-21T01:03:50.798Z,3.33
2023-03-21T01:06:05.827Z,2.92
2023-03-21T01:08:20.690Z,3.17
2023-03-21T01:10:25.678Z,2.03
2023-03-21T01:12:28.484Z,2.40
2023-03-21T01:14:30.117Z,2.17
2023-03-21T01:16:32.050Z,2.78
2023-03-21T01:18:35.432Z,2.83
2023-03-21T01:20:37.036Z,2.78
2023-03-21T01:22:38.852Z,2.88
2023-03-21T01:24:50.560Z,2.47
2023-03-21T01:26:54.503Z,2.42
2023-03-21T01:28:56.213Z,2.50
2023-03-21T01:31:02.924Z,3.00
2023-03-21T01:33:04.532Z,2.67
2023-03-21T01:35:06.986Z,2.53
2023-03-21T01:37:08.648Z,3.50
2023-03-21T01:39:10.539Z,2.92
2023-03-21T01:41:20.079Z,2.50
2023-03-21T01:43:26.510Z,2.33
2023-03-21T01:46:04.956Z,2.10
2023-03-21T01:48:06.682Z,2.47
2023-03-21T01:50:08.588Z,3.00
2023-03-21T01:52:20.916Z,2.30
2023-03-21T01:54:29.649Z,2.45
2023-03-21T01:56:34.017Z,1.83
2023-03-21T01:58:36.045Z,2.58
2023-03-21T02:00:41.569Z,2.33
2023-03-21T02:02:52.460Z,2.92
2023-03-21T02:04:58.362Z,2.65
2023-03-21T02:07:14.736Z,2.50
2023-03-21T02:09:19.898Z,2.42
2023-03-21T02:11:22.317Z,2.45
2023-03-21T02:13:27.126Z,1.80
2023-03-21T02:15:28.780Z,2.72
2023-03-21T02:17:42.539Z,2.90
2023-03-21T02:20:08.869Z,2.13
2023-03-21T02:22:16.382Z,2.40
2023-03-21T02:25:21.877Z,2.75
2023-03-21T02:27:25.190Z,2.25
2023-03-21T02:29:52.419Z,2.63
2023-03-21T02:32:28.371Z,2.50
2023-03-21T02:35:06.761Z,2.63
2023-03-21T02:37:44.663Z,3.30
2023-03-21T02:40:33.039Z,2.60
2023-03-21T02:42:42.060Z,3.22
2023-03-21T02:44:54.709Z,3.55
2023-03-21T02:47:05.855Z,3.03
2023-03-21T02:49:16.924Z,3.10
2023-03-21T02:51:21.670Z,2.85
2023-03-21T02:53:25.989Z,3.03
2023-03-21T02:55:31.410Z,3.17
2023-03-21T02:57:42.170Z,2.95
2023-03-21T02:59:54.346Z,2.58
2023-03-21T03:01:58.898Z,3.20
2023-03-21T03:04:00.654Z,3.05
2023-03-21T03:06:04.481Z,2.88
2023-03-21T03:08:36.213Z,3.13
2023-03-21T03:11:05.854Z,3.25
2023-03-21T03:13:17.870Z,3.67
2023-03-21T03:15:31.288Z,3.63
2023-03-21T03:17:44.378Z,3.50
2023-03-21T03:20:17.499Z,3.38
2023-03-21T03:22:28.317Z,3.72
2023-03-21T03:24:45.346Z,2.80
2023-03-21T03:26:54.246Z,3.30
2023-03-21T03:28:59.515Z,2.50
2023-03-21T03:31:09.062Z,2.97
2023-03-21T03:33:11.934Z,2.60
2023-03-21T03:35:15.994Z,2.88
2023-03-21T03:37:21.396Z,2.80
2023-03-21T03:39:30.068Z,2.95
2023-03-21T03:41:57.721Z,2.80
2023-03-21T03:43:58.570Z,3.17
2023-03-21T03:46:12.383Z,2.58
2023-03-21T03:48:22.268Z,2.20
2023-03-21T03:50:35.561Z,2.30
2023-03-21T03:52:53.609Z,2.03
2023-03-21T03:54:57.192Z,2.45
2023-03-21T03:56:59.328Z,2.15
2023-03-21T03:59:02.354Z,1.90
2023-03-21T04:01:04.229Z,2.38
2023-03-21T04:03:07.315Z,2.85
2023-03-21T04:05:09.484Z,2.40
2023-03-21T04:07:11.134Z,2.25
2023-03-21T04:09:21.950Z,2.40
2023-03-21T04:11:27.876Z,2.95
2023-03-21T04:13:29.520Z,1.77
2023-03-21T04:15:31.259Z,3.22
2023-03-21T04:17:33.180Z,2.10
2023-03-21T04:19:34.940Z,2.28
2023-03-21T04:21:36.692Z,2.53
2023-03-21T04:23:38.960Z,2.30
2023-03-21T04:25:53.992Z,2.97
2023-03-21T04:27:57.920Z,2.55
2023-03-21T04:30:00.332Z,3.47
2023-03-21T04:32:02.029Z,3.55
2023-03-21T04:34:09.909Z,3.10
2023-03-21T04:36:24.819Z,3.13
2023-03-21T04:38:30.689Z,3.00
2023-03-21T04:40:32.428Z,3.08
2023-03-21T04:42:35.087Z,3.38
2023-03-21T04:44:36.850Z,3.53
2023-03-21T04:46:39.560Z,3.40
2023-03-21T04:48:41.305Z,2.90
2023-03-21T04:50:43.269Z,3.33
2023-03-21T04:52:45.602Z,2.60
2023-03-21T04:54:48.770Z,3.72
2023-03-21T04:56:52.207Z,2.30
2023-03-21T04:58:54.102Z,2.50
2023-03-21T05:00:57.522Z,2.85
2023-03-21T05:03:00.170Z,3.03
2023-03-21T05:05:02.346Z,3.33
2023-03-21T05:07:04.249Z,2.92
2023-03-21T05:09:07.121Z,2.97
2023-03-21T05:11:08.792Z,2.90
2023-03-21T05:13:11.593Z,2.65
2023-03-21T05:15:14.290Z,2.67
2023-03-21T05:17:23.215Z,3.10
2023-03-21T05:19:35.250Z,3.08
2023-03-21T05:21:43.726Z,2.40
2023-03-21T05:23:45.391Z,3.33
2023-03-21T05:25:47.066Z,2.92
2023-03-21T05:27:54.194Z,2.67
2023-03-21T05:29:55.819Z,2.40
2023-03-21T05:31:58.300Z,2.50
2023-03-21T05:33:59.937Z,3.15
2023-03-21T05:36:01.579Z,2.40
2023-03-21T05:38:03.367Z,2.85
2023-03-21T05:40:07.710Z,2.45
2023-03-21T05:42:09.376Z,2.78
2023-03-21T05:44:11.084Z,2.63
2023-03-21T05:46:12.904Z,3.22
2023-03-21T05:48:14.615Z,2.65
2023-03-21T05:50:16.421Z,4.13
2023-03-21T05:52:18.257Z,3.55
2023-03-21T05:54:19.861Z,2.72
2023-03-21T05:56:21.823Z,3.10
2023-03-21T05:58:23.593Z,3.05
2023-03-21T06:00:25.377Z,2.78
2023-03-21T06:02:27.541Z,3.20
2023-03-21T06:04:29.224Z,3.13
2023-03-21T06:06:31.144Z,3.35
2023-03-21T06:08:32.850Z,3.30
2023-03-21T06:10:38.308Z,3.30
2023-03-21T06:12:39.975Z,3.55
2023-03-21T06:14:41.789Z,2.28
2023-03-21T06:16:46.226Z,3.08
2023-03-21T06:18:47.936Z,3.03
2023-03-21T06:20:56.740Z,2.30
2023-03-21T06:22:58.676Z,2.35
2023-03-21T06:25:10.435Z,3.35
2023-03-21T06:27:12.384Z,3.15
2023-03-21T06:29:14.353Z,3.50
2023-03-21T06:31:16.445Z,3.42
2023-03-21T06:33:21.101Z,3.47
2023-03-21T06:35:23.222Z,4.35
2023-03-21T06:37:26.502Z,4.60
2023-03-21T06:39:28.156Z,5.63
2023-03-21T06:41:29.822Z,5.18
2023-03-21T06:43:32.141Z,4.00
2023-03-21T06:45:33.844Z,4.80
2023-03-21T06:47:35.469Z,5.55
2023-03-21T06:49:37.157Z,4.93
2023-03-21T06:51:38.920Z,4.07
2023-03-21T06:53:41.642Z,4.95
2023-03-21T06:55:43.578Z,4.70
2023-03-21T06:57:45.843Z,4.18
2023-03-21T06:59:51.179Z,5.30
2023-03-21T07:01:54.125Z,4.65
2023-03-21T07:03:57.528Z,4.60
2023-03-21T07:05:59.274Z,5.03
2023-03-21T07:08:01.391Z,4.53
2023-03-21T07:10:04.440Z,4.57
2023-03-21T07:12:06.246Z,4.78
2023-03-21T07:14:07.863Z,4.63
2023-03-21T07:16:09.988Z,3.90
2023-03-21T07:18:11.771Z,4.47
2023-03-21T07:20:14.281Z,5.22
2023-03-21T07:22:15.966Z,4.68
2023-03-21T07:24:17.589Z,4.65
2023-03-21T07:26:19.282Z,4.50
2023-03-21T07:28:21.730Z,4.65
2023-03-21T07:30:23.684Z,4.57
2023-03-21T07:32:30.110Z,3.92
2023-03-21T07:34:33.247Z,3.95
2023-03-21T07:36:34.986Z,5.00
2023-03-21T07:38:36.567Z,4.38
2023-03-21T07:40:38.419Z,4.65
2023-03-21T07:42:41.434Z,4.28
2023-03-21T07:44:43.528Z,4.43
2023-03-21T07:46:45.349Z,4.10
2023-03-21T07:49:00.163Z,4.70
2023-03-21T07:51:02.418Z,4.10
2023-03-21T07:53:04.141Z,4.57
2023-03-21T07:55:09.247Z,4.68
2023-03-21T07:57:23.151Z,4.88
2023-03-21T07:59:24.824Z,4.30
2023-03-21T08:01:27.128Z,4.82
2023-03-21T08:03:29.926Z,5.45
2023-03-21T08:05:46.740Z,5.72
2023-03-21T08:07:48.871Z,3.15
2023-03-21T08:09:50.683Z,3.67
2023-03-21T08:11:52.398Z,4.13
2023-03-21T08:13:55.803Z,4.78
2023-03-21T08:15:57.511Z,4.80
2023-03-21T08:18:00.478Z,4.60
2023-03-21T08:20:12.064Z,4.97
2023-03-21T08:22:14.016Z,4.63
2023-03-21T08:24:16.598Z,5.07
2023-03-21T08:26:18.532Z,3.95
2023-03-21T08:28:21.351Z,4.57
2023-03-21T08:30:26.936Z,4.45
2023-03-21T08:32:32.940Z,4.80
2023-03-21T08:34:35.618Z,4.72
2023-03-21T08:36:37.659Z,4.88
2023-03-21T08:38:39.695Z,4.97
2023-03-21T08:40:41.666Z,5.03
2023-03-21T08:42:57.913Z,5.32
2023-03-21T08:44:59.588Z,5.05
2023-03-21T08:47:01.650Z,3.40
2023-03-21T08:49:03.455Z,3.90
2023-03-21T08:51:21.231Z,4.55
2023-03-21T08:53:26.275Z,4.93
2023-03-21T08:55:33.258Z,4.20
2023-03-21T08:57:34.993Z,4.45
2023-03-21T08:59:37.025Z,4.25
2023-03-21T09:01:38.702Z,5.07
2023-03-21T09:03:40.374Z,4.30
2023-03-21T09:05:42.230Z,4.18
2023-03-21T09:07:44.893Z,4.43
2023-03-21T09:09:50.898Z,4.40
2023-03-21T09:11:59.882Z,4.32
2023-03-21T09:14:01.997Z,4.22
2023-03-21T09:16:05.426Z,4.60
2023-03-21T09:18:13.393Z,4.00
2023-03-21T09:20:31.189Z,4.28
2023-03-21T09:22:33.101Z,3.97
2023-03-21T09:24:34.738Z,4.80
2023-03-21T09:26:37.608Z,3.78
2023-03-21T09:28:40.407Z,4.22
2023-03-21T09:30:42.562Z,4.47
2023-03-21T09:32:48.924Z,4.05
2023-03-21T09:34:51.038Z,4.28
2023-03-21T09:36:56.635Z,4.47
2023-03-21T09:38:59.573Z,4.00
2023-03-21T09:41:18.653Z,4.20
2023-03-21T09:43:57.632Z,3.45
2023-03-21T09:46:08.246Z,3.78
2023-03-21T09:48:22.479Z,3.63
2023-03-21T09:50:29.022Z,3.95
2023-03-21T09:52:54.293Z,4.10
2023-03-21T09:54:56.509Z,4.07
2023-03-21T09:57:21.058Z,4.38
2023-03-21T09:59:34.441Z,4.03
2023-03-21T10:01:42.433Z,3.35
2023-03-21T10:03:44.940Z,3.92
2023-03-21T10:05:47.117Z,3.70
2023-03-21T10:07:54.374Z,3.45
2023-03-21T10:09:57.581Z,3.83
2023-03-21T10:12:04.645Z,3.67
2023-03-21T10:14:40.436Z,4.05
2023-03-21T10:16:45.111Z,2.78
2023-03-21T10:18:48.046Z,3.10
2023-03-21T10:20:52.000Z,3.72
2023-03-21T10:22:55.698Z,3.17
2023-03-21T10:24:57.389Z,3.20
2023-03-21T10:26:59.466Z,3.63
2023-03-21T10:29:02.553Z,3.47
2023-03-21T10:31:07.444Z,3.22
2023-03-21T10:33:14.789Z,3.55
2023-03-21T10:35:17.064Z,3.35
2023-03-21T10:37:18.794Z,3.55
2023-03-21T10:39:36.510Z,3.40
2023-03-21T10:41:40.421Z,3.78
2023-03-21T10:43:46.073Z,3.33
2023-03-21T10:45:49.038Z,3.20
2023-03-21T10:47:52.651Z,2.63
2023-03-21T10:50:07.284Z,2.92
2023-03-21T10:52:11.485Z,2.35
2023-03-21T10:54:21.465Z,2.00
2023-03-21T10:56:28.708Z,1.77
2023-03-21T10:58:34.834Z,2.63
2023-03-21T11:00:40.234Z,1.83
2023-03-21T11:02:43.482Z,2.40
2023-03-21T11:04:46.376Z,2.30
2023-03-21T11:06:54.937Z,2.60
2023-03-21T11:09:08.284Z,2.08
2023-03-21T11:11:15.528Z,2.25
2023-03-21T11:13:20.110Z,2.35
2023-03-21T11:15:27.226Z,2.45
2023-03-21T11:17:31.302Z,2.05
2023-03-21T11:19:35.640Z,1.85
2023-03-21T11:21:37.840Z,2.08
2023-03-21T11:23:47.058Z,2.40
2023-03-21T11:25:50.148Z,2.10
2023-03-21T11:27:55.539Z,2.08
2023-03-21T11:29:59.960Z,1.77
2023-03-21T11:32:24.372Z,2.30
2023-03-21T11:34:32.507Z,2.10
2023-03-21T11:36:38.927Z,2.25
2023-03-21T11:38:40.703Z,2.35
2023-03-21T11:40:54.005Z,1.77
2023-03-21T11:42:58.326Z,2.30
2023-03-21T11:45:23.309Z,2.08
2023-03-21T11:47:25.364Z,2.00
2023-03-21T11:49:27.901Z,2.13
2023-03-21T11:51:40.582Z,2.33
2023-03-21T11:53:46.581Z,2.25
2023-03-21T11:55:51.032Z,1.40
2023-03-21T11:58:13.785Z,2.38
2023-03-21T12:00:36.977Z,2.05
2023-03-21T12:03:11.254Z,2.70
2023-03-21T12:05:22.664Z,2.38
2023-03-21T12:07:58.461Z,2.25
2023-03-21T12:10:06.624Z,3.05
2023-03-21T12:12:38.797Z,2.85
2023-03-21T12:15:18.328Z,3.33
2023-03-21T12:17:28.941Z,2.80
2023-03-21T12:19:47.481Z,3.08
2023-03-21T12:22:19.343Z,2.97
2023-03-21T12:24:24.219Z,3.85
2023-03-21T12:26:41.822Z,3.47
2023-03-21T12:29:09.758Z,3.97
2023-03-21T12:31:48.255Z,3.92
2023-03-21T12:34:26.235Z,3.40
2023-03-21T12:36:33.552Z,3.13
2023-03-21T12:38:44.460Z,3.95
2023-03-21T12:40:46.258Z,3.15
2023-03-21T12:43:25.800Z,3.05
2023-03-21T12:45:51.150Z,3.75
2023-03-21T12:48:15.208Z,2.90
2023-03-21T12:50:40.780Z,2.88
2023-03-21T12:53:04.330Z,3.80
2023-03-21T12:55:29.495Z,3.28
2023-03-21T12:57:57.047Z,5.20
2023-03-21T13:00:18.604Z,4.15
2023-03-21T13:02:35.764Z,3.35
2023-03-21T13:05:01.520Z,3.58
2023-03-21T13:07:07.518Z,4.18
2023-03-21T13:09:28.599Z,3.67
2023-03-21T13:11:37.537Z,3.65
2023-03-21T13:13:52.544Z,4.40
2023-03-21T13:15:57.388Z,3.88
2023-03-21T13:18:05.053Z,3.83
2023-03-21T13:20:33.882Z,3.63
2023-03-21T13:22:37.476Z,3.50
2023-03-21T13:24:50.254Z,4.00
2023-03-21T13:27:22.321Z,4.55
2023-03-21T13:29:31.431Z,4.15
2023-03-21T13:31:51.071Z,5.20
2023-03-21T13:33:56.006Z,4.93
2023-03-21T13:36:07.794Z,5.03
2023-03-21T13:38:23.607Z,4.15
2023-03-21T13:40:46.341Z,4.65
2023-03-21T13:42:54.468Z,5.20
2023-03-21T13:45:01.920Z,4.88
2023-03-21T13:47:08.318Z,4.25
2023-03-21T13:49:10.339Z,4.55
2023-03-21T13:51:13.715Z,4.10
2023-03-21T13:53:17.656Z,5.55
2023-03-21T13:55:22.389Z,4.78
2023-03-21T13:57:27.478Z,5.43
2023-03-21T13:59:49.389Z,5.05
2023-03-21T14:02:32.333Z,4.47
2023-03-21T14:04:41.995Z,4.82
2023-03-21T14:06:58.096Z,4.55
2023-03-21T14:09:00.714Z,4.22
2023-03-21T14:11:06.556Z,4.70
2023-03-21T14:13:10.871Z,4.45
2023-03-21T14:15:20.822Z,4.50
2023-03-21T14:17:31.431Z,4.80
2023-03-21T14:19:33.268Z,4.95
2023-03-21T14:21:35.847Z,5.82
2023-03-21T14:23:39.046Z,3.75
2023-03-21T14:25:47.504Z,4.43
2023-03-21T14:27:53.396Z,4.30
2023-03-21T14:29:55.743Z,4.90
2023-03-21T14:31:57.631Z,5.22
2023-03-21T14:34:00.297Z,4.53
2023-03-21T14:36:09.000Z,5.03
2023-03-21T14:38:32.983Z,5.75
2023-03-21T14:40:35.269Z,5.03
2023-03-21T14:42:39.810Z,4.60
2023-03-21T14:44:55.252Z,4.68
2023-03-21T14:47:05.988Z,5.60
2023-03-21T14:49:21.190Z,5.03
2023-03-21T14:51:23.782Z,4.32
2023-03-21T14:53:28.442Z,4.35
2023-03-21T14:55:30.421Z,4.65
2023-03-21T14:57:33.298Z,5.00
2023-03-21T14:59:37.632Z,4.80
2023-03-21T15:01:39.897Z,5.05
2023-03-21T15:03:44.904Z,5.80
2023-03-21T15:05:47.022Z,6.07
2023-03-21T15:08:00.354Z,4.70
2023-03-21T15:10:08.877Z,4.43
2023-03-21T15:12:11.332Z,4.25
2023-03-21T15:14:14.388Z,4.95
2023-03-21T15:16:16.209Z,4.85
2023-03-21T15:18:26.502Z,4.60
2023-03-21T15:20:32.467Z,6.00
2023-03-21T15:22:38.537Z,5.03
2023-03-21T15:24:43.429Z,4.53
2023-03-21T15:26:46.658Z,4.03
2023-03-21T15:28:56.109Z,3.63
2023-03-21T15:31:00.624Z,4.35
2023-03-21T15:33:13.070Z,5.28
2023-03-21T15:35:25.439Z,5.50
2023-03-21T15:37:28.291Z,4.63
2023-03-21T15:39:29.997Z,3.92
2023-03-21T15:41:32.276Z,4.28
2023-03-21T15:43:40.654Z,4.30
2023-03-21T15:46:00.997Z,4.03
2023-03-21T15:48:08.151Z,4.05
2023-03-21T15:50:34.188Z,5.15
2023-03-21T15:52:36.256Z,5.38
2023-03-21T15:54:47.867Z,7.60
2023-03-21T15:56:54.852Z,6.85
2023-03-21T15:58:58.008Z,5.60
2023-03-21T16:01:02.456Z,5.72
2023-03-21T16:03:09.695Z,6.80
2023-03-21T16:05:30.912Z,6.00
2023-03-21T16:07:34.155Z,5.85
2023-03-21T16:09:42.746Z,3.80
2023-03-21T16:11:50.285Z,3.58
2023-03-21T16:13:52.950Z,4.72
2023-03-21T16:15:54.622Z,5.47
2023-03-21T16:17:58.225Z,4.68
2023-03-21T16:20:00.807Z,4.90
2023-03-21T16:22:02.422Z,5.00
2023-03-21T16:24:05.665Z,4.97
2023-03-21T16:26:10.940Z,4.35
2023-03-21T16:28:16.668Z,3.55
2023-03-21T16:30:20.752Z,4.07
2023-03-21T16:32:22.365Z,3.55
2023-03-21T16:34:23.934Z,3.55
2023-03-21T16:36:31.226Z,3.75
2023-03-21T16:38:32.957Z,3.58
2023-03-21T16:40:37.852Z,3.17
2023-03-21T16:42:39.468Z,3.17
2023-03-21T16:44:41.276Z,3.10
2023-03-21T16:46:43.081Z,3.22
2023-03-21T16:48:47.254Z,2.72
2023-03-21T16:50:49.054Z,2.92
2023-03-21T16:52:50.994Z,2.85
2023-03-21T16:54:52.686Z,2.92
2023-03-21T16:56:55.623Z,2.55
2023-03-21T16:58:57.970Z,1.83
2023-03-21T17:00:59.762Z,2.20
2023-03-21T17:03:03.202Z,2.40
2023-03-21T17:05:07.212Z,1.88
2023-03-21T17:07:16.030Z,1.42
2023-03-21T17:09:21.167Z,2.10
2023-03-21T17:11:24.317Z,2.22
2023-03-21T17:13:25.931Z,1.95
2023-03-21T17:15:27.730Z,1.75
2023-03-21T17:17:29.324Z,1.58
2023-03-21T17:19:32.028Z,2.03
2023-03-21T17:21:33.669Z,2.15
2023-03-21T17:23:35.766Z,1.50
2023-03-21T17:25:37.382Z,2.15
2023-03-21T17:27:39.329Z,1.67
2023-03-21T17:29:41.045Z,1.83
2023-03-21T17:31:44.002Z,1.98
2023-03-21T17:33:46.032Z,1.70
2023-03-21T17:35:50.452Z,2.28
2023-03-21T17:37:52.745Z,3.97
2023-03-21T17:39:54.474Z,3.00
2023-03-21T17:41:57.024Z,2.85
2023-03-21T17:43:58.633Z,2.58
2023-03-21T17:46:00.412Z,3.25
2023-03-21T17:48:02.908Z,3.45
2023-03-21T17:50:05.222Z,3.53
2023-03-21T17:52:06.933Z,4.03
2023-03-21T17:54:09.578Z,4.43
2023-03-21T17:56:23.250Z,4.40
2023-03-21T17:58:26.290Z,5.03
2023-03-21T18:00:30.495Z,4.13
2023-03-21T18:02:32.268Z,5.75
2023-03-21T18:04:33.957Z,3.50
2023-03-21T18:06:37.518Z,4.50
2023-03-21T18:08:39.234Z,3.83
2023-03-21T18:10:42.167Z,3.53
2023-03-21T18:12:47.337Z,2.95
2023-03-21T18:14:49.085Z,2.63
2023-03-21T18:16:54.310Z,2.13
2023-03-21T18:18:56.862Z,2.47
2023-03-21T18:20:59.350Z,2.58
2023-03-21T18:23:01.166Z,2.25
2023-03-21T18:25:03.837Z,2.92
2023-03-21T18:27:06.681Z,2.13
2023-03-21T18:31:30.344Z,3.53
2023-03-21T18:33:33.992Z,3.30
2023-03-21T18:35:35.752Z,3.20
2023-03-21T18:37:37.483Z,4.10
2023-03-21T18:39:39.215Z,5.63
2023-03-21T18:41:40.939Z,5.38
2023-03-21T18:44:15.896Z,12.32
2023-03-21T18:46:05.912Z,9.02
2023-03-21T18:48:07.823Z,9.32
2023-03-21T18:50:14.493Z,6.80
2023-03-21T18:52:17.692Z,8.70
2023-03-21T18:54:20.625Z,8.27
2023-03-21T18:57:13.083Z,7.65
2023-03-21T18:58:44.894Z,5.65
2023-03-21T19:00:46.951Z,5.00
2023-03-21T19:02:53.662Z,3.90
2023-03-21T19:05:01.278Z,2.53
2023-03-21T19:07:04.622Z,2.83
2023-03-21T19:09:08.061Z,2.10
2023-03-21T19:11:10.517Z,2.20
2023-03-21T19:13:12.434Z,2.70
2023-03-21T19:15:16.342Z,2.72
2023-03-21T19:19:41.263Z,2.90
2023-03-21T19:21:43.398Z,2.10
2023-03-21T19:24:20.790Z,2.38
2023-03-21T19:26:06.896Z,2.20
2023-03-21T19:28:09.835Z,5.00
2023-03-21T19:30:15.462Z,4.57
2023-03-21T19:32:17.918Z,5.15
2023-03-21T19:34:20.830Z,5.18
2023-03-21T19:36:23.641Z,5.57
2023-03-21T19:38:25.460Z,4.47
2023-03-21T19:40:27.198Z,3.17
2023-03-21T19:42:30.849Z,5.22
2023-03-21T19:44:33.395Z,6.13
2023-03-21T19:46:35.176Z,16.48
2023-03-21T19:48:38.571Z,12.68
2023-03-21T19:51:03.353Z,12.32
2023-03-21T19:53:02.433Z,6.95
2023-03-21T19:55:05.004Z,4.38
2023-03-21T19:57:07.381Z,3.70
2023-03-21T19:59:09.176Z,3.85
2023-03-21T20:01:11.709Z,2.95
2023-03-21T20:03:13.538Z,2.78
2023-03-21T20:05:16.568Z,3.83
2023-03-21T20:07:18.362Z,3.05
2023-03-21T20:09:49.485Z,3.10
2023-03-21T20:11:43.782Z,2.38
2023-03-21T20:13:49.774Z,3.00
2023-03-21T20:15:55.454Z,2.60
2023-03-21T20:17:58.045Z,2.50
2023-03-21T20:20:00.174Z,2.78
2023-03-21T20:22:02.828Z,2.50
2023-03-21T20:24:05.758Z,2.75
2023-03-21T20:26:09.563Z,2.20
2023-03-21T20:28:17.192Z,2.53
2023-03-21T20:30:25.856Z,2.28
2023-03-21T20:32:27.572Z,2.72
2023-03-21T20:34:30.531Z,2.90
2023-03-21T20:36:40.019Z,2.60
2023-03-21T20:38:42.370Z,2.92
2023-03-21T20:40:45.632Z,3.50
2023-03-21T20:42:48.884Z,5.10
2023-03-21T20:44:58.806Z,3.60
2023-03-21T20:47:00.867Z,4.68
2023-03-21T20:49:02.683Z,3.67
2023-03-21T20:53:35.890Z,4.15
2023-03-21T20:55:37.898Z,3.75
2023-03-21T20:57:40.804Z,2.92
2023-03-21T20:59:43.946Z,3.97
2023-03-21T21:01:45.803Z,3.53
2023-03-21T21:03:50.346Z,2.88
2023-03-21T21:05:52.316Z,2.80
2023-03-21T21:07:54.112Z,3.00
2023-03-21T21:09:55.830Z,3.10
2023-03-21T21:12:13.886Z,2.60
2023-03-21T21:14:16.191Z,3.50
2023-03-21T21:16:17.963Z,2.58
2023-03-21T21:18:19.777Z,3.55
2023-03-21T21:20:21.454Z,3.17
2023-03-21T21:22:23.196Z,3.03
2023-03-21T21:24:24.846Z,2.60
2023-03-21T21:26:26.561Z,3.22
2023-03-21T21:28:30.368Z,2.45
2023-03-21T21:30:32.746Z,4.05
2023-03-21T21:32:34.668Z,3.47
2023-03-21T21:34:37.464Z,4.03
2023-03-21T21:36:39.235Z,4.25
2023-03-21T21:38:43.756Z,4.00
2023-03-21T21:40:49.912Z,4.65
2023-03-21T21:42:51.799Z,6.45
2023-03-21T21:44:53.471Z,7.05
2023-03-21T21:46:55.409Z,7.60
2023-03-21T21:48:59.559Z,7.65
2023-03-21T21:51:02.556Z,6.75
2023-03-21T21:53:06.156Z,6.68
2023-03-21T21:55:08.017Z,6.07
2023-03-21T21:57:10.368Z,6.28
2023-03-21T21:59:16.967Z,5.22
2023-03-21T22:01:20.978Z,5.97
2023-03-21T22:03:23.373Z,6.18
2023-03-21T22:05:25.900Z,6.15
2023-03-21T22:07:27.858Z,7.28
2023-03-21T22:09:29.510Z,7.32
2023-03-21T22:11:31.259Z,7.10
2023-03-21T22:13:32.916Z,8.15
2023-03-21T22:15:34.645Z,10.13
2023-03-21T22:17:36.718Z,10.23
2023-03-21T22:19:40.232Z,10.70
2023-03-21T22:21:42.390Z,11.68
2023-03-21T22:23:44.020Z,11.43
2023-03-21T22:25:51.335Z,11.23
2023-03-21T22:27:53.435Z,9.95
2023-03-21T22:29:56.123Z,7.43
2023-03-21T22:31:57.959Z,7.00
2023-03-21T22:33:59.688Z,7.32
2023-03-21T22:36:01.559Z,6.85
2023-03-21T22:38:03.264Z,7.63
2023-03-21T22:40:09.054Z,7.63
2023-03-21T22:42:10.867Z,8.13
2023-03-21T22:44:13.127Z,9.48
2023-03-21T22:46:14.905Z,8.88
2023-03-21T22:48:16.654Z,8.77
2023-03-21T22:50:18.444Z,9.73
2023-03-21T22:52:20.516Z,9.23
2023-03-21T22:54:22.156Z,10.40
2023-03-21T22:56:23.898Z,10.65
2023-03-21T22:58:25.857Z,9.85
2023-03-21T23:00:27.660Z,8.90
2023-03-21T23:02:29.327Z,8.32
2023-03-21T23:04:31.408Z,9.32
2023-03-21T23:06:33.308Z,8.75
2023-03-21T23:08:35.056Z,8.75
2023-03-21T23:10:38.715Z,8.07
2023-03-21T23:12:40.756Z,8.02
2023-03-21T23:14:42.404Z,7.85
2023-03-21T23:16:45.184Z,8.18
2023-03-21T23:18:47.697Z,8.98
2023-03-21T23:20:49.945Z,9.77
2023-03-21T23:22:51.585Z,9.25
2023-03-21T23:24:56.552Z,10.35
2023-03-21T23:26:58.334Z,11.25
2023-03-21T23:29:00.029Z,9.98
2023-03-21T23:31:10.422Z,9.95
2023-03-21T23:33:12.286Z,10.57
2023-03-21T23:35:13.962Z,10.90
2023-03-21T23:37:15.678Z,10.18
2023-03-21T23:39:18.697Z,9.57
2023-03-21T23:41:22.448Z,10.82
2023-03-21T23:43:24.098Z,9.40
2023-03-21T23:45:26.121Z,10.57
2023-03-21T23:47:28.242Z,6.50
2023-03-21T23:49:33.472Z,7.22
2023-03-21T23:51:35.433Z,6.85
2023-03-21T23:53:37.630Z,7.10
2023-03-21T23:55:40.892Z,8.18
2023-03-21T23:57:43.878Z,7.90
2023-03-21T23:59:47.032Z,8.32
